Trade, Tennessee
Current Conditions -  °F | °C
As of 4:35 PM on Friday 24 Oct 2014 (Local Time) from KTNB Reporting Station
Clear Clear  
Wind Chill: 61°   Ceiling: Unl
Heat Index: 61°   Visibility: 10mi
Dew Point: 30°   Wind: 10mph
Humidity: 31%   Direction: 290°WNW
Pressure: 30.04"   Gusts: NA
Location:  36.35°N, 81.75°W
Report Text: KTNB 242035Z AUTO 29009KT 10SM CLR 16/M01 A3004 RMK AO2 T01611011
Loading
Personal Weather Stations






























Interactive Weather Map
Tropical Storm Tracking
New forecast layout! Learn more

10-Day Weather Forecast

Advertisements
Track Severe Weather on mobile